sensor_id;sensor_type;location;lat;lon;timestamp;temperature;humidity
45643;DHT22;31358;46.008;11.144;2022-09-21T00:00:05;12.50;98.10
45643;DHT22;31358;46.008;11.144;2022-09-21T00:02:30;12.40;98.30
45643;DHT22;31358;46.008;11.144;2022-09-21T00:04:56;12.40;98.60
45643;DHT22;31358;46.008;11.144;2022-09-21T00:07:22;12.30;98.70
45643;DHT22;31358;46.008;11.144;2022-09-21T00:09:47;12.40;98.60
45643;DHT22;31358;46.008;11.144;2022-09-21T00:12:13;12.40;98.40
45643;DHT22;31358;46.008;11.144;2022-09-21T00:14:39;12.40;97.90
45643;DHT22;31358;46.008;11.144;2022-09-21T00:17:06;12.40;97.70
45643;DHT22;31358;46.008;11.144;2022-09-21T00:19:33;12.40;97.80
45643;DHT22;31358;46.008;11.144;2022-09-21T00:21:59;12.40;97.90
45643;DHT22;31358;46.008;11.144;2022-09-21T00:24:25;12.50;97.90
45643;DHT22;31358;46.008;11.144;2022-09-21T00:26:50;12.40;98.40
45643;DHT22;31358;46.008;11.144;2022-09-21T00:29:16;12.30;97.60
45643;DHT22;31358;46.008;11.144;2022-09-21T00:31:42;12.30;97.80
45643;DHT22;31358;46.008;11.144;2022-09-21T00:34:07;12.30;97.90
45643;DHT22;31358;46.008;11.144;2022-09-21T00:36:33;12.30;97.60
45643;DHT22;31358;46.008;11.144;2022-09-21T00:39:00;12.20;97.30
45643;DHT22;31358;46.008;11.144;2022-09-21T00:41:27;12.10;97.60
45643;DHT22;31358;46.008;11.144;2022-09-21T00:46:41;12.00;97.60
45643;DHT22;31358;46.008;11.144;2022-09-21T00:49:08;12.00;97.80
45643;DHT22;31358;46.008;11.144;2022-09-21T00:51:35;12.00;97.60
45643;DHT22;31358;46.008;11.144;2022-09-21T00:54:05;12.10;97.00
45643;DHT22;31358;46.008;11.144;2022-09-21T00:56:34;12.10;97.00
45643;DHT22;31358;46.008;11.144;2022-09-21T00:59:01;12.20;96.50
45643;DHT22;31358;46.008;11.144;2022-09-21T01:01:28;12.10;97.20
45643;DHT22;31358;46.008;11.144;2022-09-21T01:03:54;11.90;97.30
45643;DHT22;31358;46.008;11.144;2022-09-21T01:06:20;11.90;97.10
45643;DHT22;31358;46.008;11.144;2022-09-21T01:08:51;11.80;97.20
45643;DHT22;31358;46.008;11.144;2022-09-21T01:27:56;11.60;96.90
45643;DHT22;31358;46.008;11.144;2022-09-21T01:30:26;11.60;97.00
45643;DHT22;31358;46.008;11.144;2022-09-21T01:33:13;11.40;96.80
45643;DHT22;31358;46.008;11.144;2022-09-21T01:35:45;11.50;96.60
45643;DHT22;31358;46.008;11.144;2022-09-21T01:38:23;11.60;96.70
45643;DHT22;31358;46.008;11.144;2022-09-21T01:40:52;11.30;96.80
45643;DHT22;31358;46.008;11.144;2022-09-21T01:43:25;11.30;96.80
45643;DHT22;31358;46.008;11.144;2022-09-21T01:45:52;11.20;96.70
45643;DHT22;31358;46.008;11.144;2022-09-21T01:48:20;11.20;96.60
45643;DHT22;31358;46.008;11.144;2022-09-21T01:50:51;11.20;96.80
45643;DHT22;31358;46.008;11.144;2022-09-21T01:53:40;11.30;96.50
45643;DHT22;31358;46.008;11.144;2022-09-21T01:56:27;11.50;96.10
45643;DHT22;31358;46.008;11.144;2022-09-21T01:59:12;11.30;96.50
45643;DHT22;31358;46.008;11.144;2022-09-21T02:01:45;11.40;96.40
45643;DHT22;31358;46.008;11.144;2022-09-21T02:04:12;11.40;96.30
45643;DHT22;31358;46.008;11.144;2022-09-21T02:06:41;11.40;96.40
45643;DHT22;31358;46.008;11.144;2022-09-21T02:09:09;11.30;96.70
45643;DHT22;31358;46.008;11.144;2022-09-21T02:11:35;11.30;96.50
45643;DHT22;31358;46.008;11.144;2022-09-21T02:14:03;11.30;96.50
45643;DHT22;31358;46.008;11.144;2022-09-21T02:16:49;11.30;96.70
45643;DHT22;31358;46.008;11.144;2022-09-21T02:24:42;11.40;96.30
45643;DHT22;31358;46.008;11.144;2022-09-21T02:27:27;11.30;96.50
45643;DHT22;31358;46.008;11.144;2022-09-21T02:30:07;11.50;95.80
45643;DHT22;31358;46.008;11.144;2022-09-21T02:38:11;11.40;95.90
45643;DHT22;31358;46.008;11.144;2022-09-21T02:43:36;11.80;94.70
45643;DHT22;31358;46.008;11.144;2022-09-21T02:46:12;11.80;94.60
45643;DHT22;31358;46.008;11.144;2022-09-21T02:48:58;11.70;95.00
45643;DHT22;31358;46.008;11.144;2022-09-21T02:51:30;11.60;94.90
45643;DHT22;31358;46.008;11.144;2022-09-21T02:53:59;11.80;94.50
45643;DHT22;31358;46.008;11.144;2022-09-21T02:56:26;11.70;94.50
45643;DHT22;31358;46.008;11.144;2022-09-21T02:58:53;11.70;94.60
45643;DHT22;31358;46.008;11.144;2022-09-21T03:01:22;11.80;94.40
45643;DHT22;31358;46.008;11.144;2022-09-21T03:03:49;11.60;94.80
45643;DHT22;31358;46.008;11.144;2022-09-21T03:06:14;11.40;95.10
45643;DHT22;31358;46.008;11.144;2022-09-21T03:08:40;11.30;95.40
45643;DHT22;31358;46.008;11.144;2022-09-21T03:11:06;11.20;95.40
45643;DHT22;31358;46.008;11.144;2022-09-21T03:13:32;11.30;95.20
45643;DHT22;31358;46.008;11.144;2022-09-21T03:16:02;11.40;94.90
45643;DHT22;31358;46.008;11.144;2022-09-21T03:18:29;11.20;95.30
45643;DHT22;31358;46.008;11.144;2022-09-21T03:20:54;11.10;95.50
45643;DHT22;31358;46.008;11.144;2022-09-21T03:23:20;11.30;95.00
45643;DHT22;31358;46.008;11.144;2022-09-21T03:25:46;11.30;95.10
45643;DHT22;31358;46.008;11.144;2022-09-21T03:28:13;11.40;94.50
45643;DHT22;31358;46.008;11.144;2022-09-21T03:30:40;11.50;94.70
45643;DHT22;31358;46.008;11.144;2022-09-21T03:33:06;11.50;94.50
45643;DHT22;31358;46.008;11.144;2022-09-21T03:35:33;11.50;94.70
45643;DHT22;31358;46.008;11.144;2022-09-21T03:37:59;11.30;95.20
45643;DHT22;31358;46.008;11.144;2022-09-21T03:40:25;11.20;95.30
45643;DHT22;31358;46.008;11.144;2022-09-21T03:42:52;11.40;94.70
45643;DHT22;31358;46.008;11.144;2022-09-21T03:45:18;11.40;95.00
45643;DHT22;31358;46.008;11.144;2022-09-21T03:47:46;11.30;95.00
45643;DHT22;31358;46.008;11.144;2022-09-21T03:50:12;11.30;95.20
45643;DHT22;31358;46.008;11.144;2022-09-21T03:52:38;11.10;95.80
45643;DHT22;31358;46.008;11.144;2022-09-21T03:55:05;11.10;95.10
45643;DHT22;31358;46.008;11.144;2022-09-21T03:57:32;11.30;94.70
45643;DHT22;31358;46.008;11.144;2022-09-21T03:59:59;11.60;93.90
45643;DHT22;31358;46.008;11.144;2022-09-21T04:02:25;11.50;94.60
45643;DHT22;31358;46.008;11.144;2022-09-21T04:04:50;11.40;94.40
45643;DHT22;31358;46.008;11.144;2022-09-21T04:07:16;11.30;94.60
45643;DHT22;31358;46.008;11.144;2022-09-21T04:09:41;11.20;94.80
45643;DHT22;31358;46.008;11.144;2022-09-21T04:12:07;11.20;94.90
45643;DHT22;31358;46.008;11.144;2022-09-21T04:14:33;10.90;96.10
45643;DHT22;31358;46.008;11.144;2022-09-21T04:16:59;10.90;95.20
45643;DHT22;31358;46.008;11.144;2022-09-21T04:19:24;11.10;94.80
45643;DHT22;31358;46.008;11.144;2022-09-21T04:21:50;11.10;94.60
45643;DHT22;31358;46.008;11.144;2022-09-21T04:24:17;10.90;95.40
45643;DHT22;31358;46.008;11.144;2022-09-21T04:26:44;10.70;96.30
45643;DHT22;31358;46.008;11.144;2022-09-21T04:29:11;10.70;95.80
45643;DHT22;31358;46.008;11.144;2022-09-21T04:31:37;10.70;95.90
45643;DHT22;31358;46.008;11.144;2022-09-21T04:34:03;10.60;96.30
45643;DHT22;31358;46.008;11.144;2022-09-21T04:36:29;10.60;96.10
45643;DHT22;31358;46.008;11.144;2022-09-21T04:38:58;10.50;96.20
45643;DHT22;31358;46.008;11.144;2022-09-21T04:41:24;10.60;96.40
45643;DHT22;31358;46.008;11.144;2022-09-21T04:43:50;10.60;96.10
45643;DHT22;31358;46.008;11.144;2022-09-21T04:46:17;10.80;95.00
45643;DHT22;31358;46.008;11.144;2022-09-21T04:48:44;10.90;95.10
45643;DHT22;31358;46.008;11.144;2022-09-21T04:51:11;10.90;95.90
45643;DHT22;31358;46.008;11.144;2022-09-21T04:53:38;10.90;95.50
45643;DHT22;31358;46.008;11.144;2022-09-21T04:56:06;10.80;95.90
45643;DHT22;31358;46.008;11.144;2022-09-21T04:58:32;10.60;95.80
45643;DHT22;31358;46.008;11.144;2022-09-21T05:00:58;10.70;95.40
45643;DHT22;31358;46.008;11.144;2022-09-21T05:03:24;10.80;95.50
45643;DHT22;31358;46.008;11.144;2022-09-21T05:05:52;10.80;95.30
45643;DHT22;31358;46.008;11.144;2022-09-21T05:08:19;11.00;94.80
45643;DHT22;31358;46.008;11.144;2022-09-21T05:11:05;11.00;94.80
45643;DHT22;31358;46.008;11.144;2022-09-21T05:13:31;11.00;95.00
45643;DHT22;31358;46.008;11.144;2022-09-21T05:15:56;11.10;95.90
45643;DHT22;31358;46.008;11.144;2022-09-21T05:18:22;11.10;96.30
45643;DHT22;31358;46.008;11.144;2022-09-21T05:20:58;11.10;96.20
45643;DHT22;31358;46.008;11.144;2022-09-21T05:23:25;11.20;96.20
45643;DHT22;31358;46.008;11.144;2022-09-21T05:25:54;11.30;95.90
45643;DHT22;31358;46.008;11.144;2022-09-21T05:28:20;11.30;95.90
45643;DHT22;31358;46.008;11.144;2022-09-21T05:30:57;11.30;96.00
45643;DHT22;31358;46.008;11.144;2022-09-21T05:33:27;11.30;96.00
45643;DHT22;31358;46.008;11.144;2022-09-21T05:36:00;11.40;95.80
45643;DHT22;31358;46.008;11.144;2022-09-21T05:38:29;11.40;95.90
45643;DHT22;31358;46.008;11.144;2022-09-21T05:40:54;11.50;96.10
45643;DHT22;31358;46.008;11.144;2022-09-21T05:43:20;11.60;95.70
45643;DHT22;31358;46.008;11.144;2022-09-21T05:45:50;11.50;96.00
45643;DHT22;31358;46.008;11.144;2022-09-21T05:48:24;11.60;95.50
45643;DHT22;31358;46.008;11.144;2022-09-21T05:50:55;11.50;96.60
45643;DHT22;31358;46.008;11.144;2022-09-21T05:56:35;11.70;95.40
45643;DHT22;31358;46.008;11.144;2022-09-21T05:59:20;11.90;95.00
45643;DHT22;31358;46.008;11.144;2022-09-21T06:04:41;11.80;96.50
45643;DHT22;31358;46.008;11.144;2022-09-21T06:07:06;11.80;97.40
45643;DHT22;31358;46.008;11.144;2022-09-21T06:09:32;11.80;97.30
45643;DHT22;31358;46.008;11.144;2022-09-21T06:11:57;11.80;97.90
45643;DHT22;31358;46.008;11.144;2022-09-21T06:14:24;11.60;98.30
45643;DHT22;31358;46.008;11.144;2022-09-21T06:16:51;11.70;95.90
45643;DHT22;31358;46.008;11.144;2022-09-21T06:19:17;11.80;96.40
45643;DHT22;31358;46.008;11.144;2022-09-21T06:21:43;11.80;97.60
45643;DHT22;31358;46.008;11.144;2022-09-21T06:24:09;11.60;98.70
45643;DHT22;31358;46.008;11.144;2022-09-21T06:26:36;11.50;97.40
45643;DHT22;31358;46.008;11.144;2022-09-21T06:29:02;11.60;95.80
45643;DHT22;31358;46.008;11.144;2022-09-21T06:31:28;11.70;95.80
45643;DHT22;31358;46.008;11.144;2022-09-21T06:33:54;11.80;95.10
45643;DHT22;31358;46.008;11.144;2022-09-21T06:36:20;11.80;97.50
45643;DHT22;31358;46.008;11.144;2022-09-21T06:38:46;11.70;98.30
45643;DHT22;31358;46.008;11.144;2022-09-21T06:41:11;11.80;98.10
45643;DHT22;31358;46.008;11.144;2022-09-21T06:43:37;11.90;99.00
45643;DHT22;31358;46.008;11.144;2022-09-21T06:46:03;11.90;98.90
45643;DHT22;31358;46.008;11.144;2022-09-21T06:48:31;11.90;96.80
45643;DHT22;31358;46.008;11.144;2022-09-21T06:50:58;12.00;96.10
45643;DHT22;31358;46.008;11.144;2022-09-21T06:53:24;12.10;97.90
45643;DHT22;31358;46.008;11.144;2022-09-21T06:55:50;12.20;98.80
45643;DHT22;31358;46.008;11.144;2022-09-21T06:58:17;12.30;98.10
45643;DHT22;31358;46.008;11.144;2022-09-21T07:00:43;12.20;98.30
45643;DHT22;31358;46.008;11.144;2022-09-21T07:03:12;12.20;98.50
45643;DHT22;31358;46.008;11.144;2022-09-21T07:05:38;12.20;98.70
45643;DHT22;31358;46.008;11.144;2022-09-21T07:08:05;12.20;98.70
45643;DHT22;31358;46.008;11.144;2022-09-21T07:10:30;12.10;99.50
45643;DHT22;31358;46.008;11.144;2022-09-21T07:13:02;12.00;99.10
45643;DHT22;31358;46.008;11.144;2022-09-21T07:15:28;12.00;99.00
45643;DHT22;31358;46.008;11.144;2022-09-21T07:17:54;12.10;99.40
45643;DHT22;31358;46.008;11.144;2022-09-21T07:20:19;12.10;99.20
45643;DHT22;31358;46.008;11.144;2022-09-21T07:22:45;12.20;98.70
45643;DHT22;31358;46.008;11.144;2022-09-21T07:25:11;12.20;98.70
45643;DHT22;31358;46.008;11.144;2022-09-21T07:27:37;12.20;98.10
45643;DHT22;31358;46.008;11.144;2022-09-21T07:30:04;12.30;96.60
45643;DHT22;31358;46.008;11.144;2022-09-21T07:32:30;12.40;96.50
45643;DHT22;31358;46.008;11.144;2022-09-21T07:34:56;12.40;94.90
45643;DHT22;31358;46.008;11.144;2022-09-21T07:37:26;12.50;94.70
45643;DHT22;31358;46.008;11.144;2022-09-21T07:39:52;12.60;95.00
45643;DHT22;31358;46.008;11.144;2022-09-21T07:42:20;12.70;95.70
45643;DHT22;31358;46.008;11.144;2022-09-21T07:44:47;12.80;95.70
45643;DHT22;31358;46.008;11.144;2022-09-21T07:47:13;12.60;95.70
45643;DHT22;31358;46.008;11.144;2022-09-21T07:49:39;12.60;95.50
45643;DHT22;31358;46.008;11.144;2022-09-21T07:52:06;12.70;95.50
45643;DHT22;31358;46.008;11.144;2022-09-21T07:54:33;12.70;95.80
45643;DHT22;31358;46.008;11.144;2022-09-21T07:56:59;12.70;96.10
45643;DHT22;31358;46.008;11.144;2022-09-21T07:59:44;12.70;96.50
45643;DHT22;31358;46.008;11.144;2022-09-21T08:02:10;12.70;96.00
45643;DHT22;31358;46.008;11.144;2022-09-21T08:04:36;12.80;95.70
45643;DHT22;31358;46.008;11.144;2022-09-21T08:07:02;12.80;94.70
45643;DHT22;31358;46.008;11.144;2022-09-21T08:09:28;12.90;94.80
45643;DHT22;31358;46.008;11.144;2022-09-21T08:11:53;13.00;95.00
45643;DHT22;31358;46.008;11.144;2022-09-21T08:14:19;13.00;95.50
45643;DHT22;31358;46.008;11.144;2022-09-21T08:16:46;13.10;94.80
45643;DHT22;31358;46.008;11.144;2022-09-21T08:19:13;13.10;95.10
45643;DHT22;31358;46.008;11.144;2022-09-21T08:21:39;13.20;94.80
45643;DHT22;31358;46.008;11.144;2022-09-21T08:24:05;13.30;94.80
45643;DHT22;31358;46.008;11.144;2022-09-21T08:26:31;13.30;93.50
45643;DHT22;31358;46.008;11.144;2022-09-21T08:28:58;13.40;94.00
45643;DHT22;31358;46.008;11.144;2022-09-21T08:31:24;13.40;94.60
45643;DHT22;31358;46.008;11.144;2022-09-21T08:33:50;13.50;94.30
45643;DHT22;31358;46.008;11.144;2022-09-21T08:36:17;13.40;94.40
45643;DHT22;31358;46.008;11.144;2022-09-21T08:38:43;13.50;94.40
45643;DHT22;31358;46.008;11.144;2022-09-21T08:41:32;13.60;94.30
45643;DHT22;31358;46.008;11.144;2022-09-21T08:44:08;13.70;93.80
45643;DHT22;31358;46.008;11.144;2022-09-21T08:46:36;13.70;94.00
45643;DHT22;31358;46.008;11.144;2022-09-21T08:49:04;13.80;93.00
45643;DHT22;31358;46.008;11.144;2022-09-21T08:51:35;13.80;92.60
45643;DHT22;31358;46.008;11.144;2022-09-21T08:54:14;13.80;93.30
45643;DHT22;31358;46.008;11.144;2022-09-21T08:56:41;14.00;92.50
45643;DHT22;31358;46.008;11.144;2022-09-21T08:59:12;14.10;92.30
45643;DHT22;31358;46.008;11.144;2022-09-21T09:02:02;14.20;92.30
45643;DHT22;31358;46.008;11.144;2022-09-21T09:19:01;22.90;79.50
45643;DHT22;31358;46.008;11.144;2022-09-21T09:21:38;23.30;78.70
45643;DHT22;31358;46.008;11.144;2022-09-21T09:24:36;21.80;77.20
45643;DHT22;31358;46.008;11.144;2022-09-21T09:27:14;19.50;78.40
45643;DHT22;31358;46.008;11.144;2022-09-21T09:30:02;17.90;81.00
45643;DHT22;31358;46.008;11.144;2022-09-21T09:32:44;17.10;82.90
45643;DHT22;31358;46.008;11.144;2022-09-21T09:38:20;16.60;82.20
45643;DHT22;31358;46.008;11.144;2022-09-21T09:51:38;17.00;81.80
45643;DHT22;31358;46.008;11.144;2022-09-21T09:54:07;17.00;80.20
45643;DHT22;31358;46.008;11.144;2022-09-21T09:56:37;17.00;78.60
45643;DHT22;31358;46.008;11.144;2022-09-21T09:59:04;16.80;78.80
45643;DHT22;31358;46.008;11.144;2022-09-21T10:04:08;16.70;82.80
45643;DHT22;31358;46.008;11.144;2022-09-21T10:06:34;16.80;82.30
45643;DHT22;31358;46.008;11.144;2022-09-21T10:09:00;16.60;77.30
45643;DHT22;31358;46.008;11.144;2022-09-21T10:11:41;16.60;78.70
45643;DHT22;31358;46.008;11.144;2022-09-21T10:14:09;16.70;79.30
45643;DHT22;31358;46.008;11.144;2022-09-21T10:16:42;16.80;79.70
45643;DHT22;31358;46.008;11.144;2022-09-21T10:19:18;17.00;77.80
45643;DHT22;31358;46.008;11.144;2022-09-21T10:21:45;17.00;79.30
45643;DHT22;31358;46.008;11.144;2022-09-21T10:24:20;17.10;79.40
45643;DHT22;31358;46.008;11.144;2022-09-21T10:26:52;17.30;79.90
45643;DHT22;31358;46.008;11.144;2022-09-21T10:34:23;18.00;78.50
45643;DHT22;31358;46.008;11.144;2022-09-21T10:36:52;18.00;80.30
45643;DHT22;31358;46.008;11.144;2022-09-21T10:44:36;17.60;76.40
45643;DHT22;31358;46.008;11.144;2022-09-21T10:47:16;17.90;78.60
45643;DHT22;31358;46.008;11.144;2022-09-21T10:49:56;18.10;76.50
45643;DHT22;31358;46.008;11.144;2022-09-21T10:52:37;18.20;76.60
45643;DHT22;31358;46.008;11.144;2022-09-21T10:55:05;18.70;80.30
45643;DHT22;31358;46.008;11.144;2022-09-21T10:57:32;18.90;78.10
45643;DHT22;31358;46.008;11.144;2022-09-21T11:00:32;19.10;77.30
45643;DHT22;31358;46.008;11.144;2022-09-21T11:03:02;19.00;75.40
45643;DHT22;31358;46.008;11.144;2022-09-21T11:05:36;18.80;73.60
45643;DHT22;31358;46.008;11.144;2022-09-21T11:08:34;18.20;72.00
45643;DHT22;31358;46.008;11.144;2022-09-21T11:11:10;18.20;73.50
45643;DHT22;31358;46.008;11.144;2022-09-21T11:13:53;18.40;75.40
45643;DHT22;31358;46.008;11.144;2022-09-21T11:21:43;18.60;72.40
45643;DHT22;31358;46.008;11.144;2022-09-21T11:27:07;18.80;74.70
45643;DHT22;31358;46.008;11.144;2022-09-21T11:29:43;19.10;74.20
45643;DHT22;31358;46.008;11.144;2022-09-21T11:57:34;19.70;70.60
45643;DHT22;31358;46.008;11.144;2022-09-21T12:08:47;20.40;71.60
45643;DHT22;31358;46.008;11.144;2022-09-21T12:11:25;20.30;72.60
45643;DHT22;31358;46.008;11.144;2022-09-21T12:19:44;20.40;73.70
45643;DHT22;31358;46.008;11.144;2022-09-21T12:22:31;20.20;72.70
45643;DHT22;31358;46.008;11.144;2022-09-21T12:25:11;20.10;70.00
45643;DHT22;31358;46.008;11.144;2022-09-21T12:27:41;20.10;68.30
45643;DHT22;31358;46.008;11.144;2022-09-21T12:30:13;20.10;69.40
45643;DHT22;31358;46.008;11.144;2022-09-21T12:41:01;20.50;75.40
45643;DHT22;31358;46.008;11.144;2022-09-21T12:46:36;20.70;74.40
45643;DHT22;31358;46.008;11.144;2022-09-21T12:49:13;20.60;72.80
45643;DHT22;31358;46.008;11.144;2022-09-21T12:51:44;20.60;75.60
45643;DHT22;31358;46.008;11.144;2022-09-21T12:57:21;20.60;73.90
45643;DHT22;31358;46.008;11.144;2022-09-21T13:00:06;20.60;73.80
45643;DHT22;31358;46.008;11.144;2022-09-21T13:10:54;20.40;74.70
45643;DHT22;31358;46.008;11.144;2022-09-21T13:13:31;20.40;74.50
45643;DHT22;31358;46.008;11.144;2022-09-21T13:15:58;20.40;75.80
45643;DHT22;31358;46.008;11.144;2022-09-21T13:18:28;20.50;75.40
45643;DHT22;31358;46.008;11.144;2022-09-21T13:20:57;20.40;75.30
45643;DHT22;31358;46.008;11.144;2022-09-21T13:23:26;20.40;76.10
45643;DHT22;31358;46.008;11.144;2022-09-21T13:26:00;20.40;75.70
45643;DHT22;31358;46.008;11.144;2022-09-21T13:29:00;20.50;77.10
45643;DHT22;31358;46.008;11.144;2022-09-21T13:31:55;20.60;76.00
45643;DHT22;31358;46.008;11.144;2022-09-21T13:37:13;20.50;75.20
45643;DHT22;31358;46.008;11.144;2022-09-21T13:39:43;20.50;76.80
45643;DHT22;31358;46.008;11.144;2022-09-21T13:44:58;20.50;77.30
45643;DHT22;31358;46.008;11.144;2022-09-21T13:47:32;20.60;77.00
45643;DHT22;31358;46.008;11.144;2022-09-21T13:50:00;20.60;76.90
45643;DHT22;31358;46.008;11.144;2022-09-21T13:53:07;20.60;77.60
45643;DHT22;31358;46.008;11.144;2022-09-21T13:55:51;20.70;77.10
45643;DHT22;31358;46.008;11.144;2022-09-21T14:00:56;20.50;76.80
45643;DHT22;31358;46.008;11.144;2022-09-21T14:03:24;20.50;78.60
45643;DHT22;31358;46.008;11.144;2022-09-21T14:05:59;20.50;79.40
45643;DHT22;31358;46.008;11.144;2022-09-21T14:08:31;20.50;79.70
45643;DHT22;31358;46.008;11.144;2022-09-21T14:13:47;20.40;79.50
45643;DHT22;31358;46.008;11.144;2022-09-21T14:24:45;20.50;80.20
45643;DHT22;31358;46.008;11.144;2022-09-21T14:30:18;20.40;81.10
45643;DHT22;31358;46.008;11.144;2022-09-21T14:35:23;20.40;81.50
45643;DHT22;31358;46.008;11.144;2022-09-21T14:37:56;20.40;81.20
45643;DHT22;31358;46.008;11.144;2022-09-21T14:40:30;20.40;80.40
45643;DHT22;31358;46.008;11.144;2022-09-21T14:42:58;20.40;81.40
45643;DHT22;31358;46.008;11.144;2022-09-21T14:49:00;20.00;80.90
45643;DHT22;31358;46.008;11.144;2022-09-21T14:54:28;20.00;80.70
45643;DHT22;31358;46.008;11.144;2022-09-21T15:00:14;20.00;82.00
45643;DHT22;31358;46.008;11.144;2022-09-21T15:02:46;20.00;81.70
45643;DHT22;31358;46.008;11.144;2022-09-21T15:08:14;19.90;82.50
45643;DHT22;31358;46.008;11.144;2022-09-21T15:11:27;19.80;81.30
45643;DHT22;31358;46.008;11.144;2022-09-21T15:21:46;18.60;83.20
45643;DHT22;31358;46.008;11.144;2022-09-21T15:24:18;18.40;82.90
45643;DHT22;31358;46.008;11.144;2022-09-21T15:26:44;18.30;83.10
45643;DHT22;31358;46.008;11.144;2022-09-21T15:29:26;18.20;83.50
45643;DHT22;31358;46.008;11.144;2022-09-21T15:31:53;18.10;83.90
45643;DHT22;31358;46.008;11.144;2022-09-21T15:34:20;18.00;83.70
45643;DHT22;31358;46.008;11.144;2022-09-21T15:36:47;18.00;83.80
45643;DHT22;31358;46.008;11.144;2022-09-21T15:39:32;17.90;84.10
45643;DHT22;31358;46.008;11.144;2022-09-21T15:42:17;17.90;84.10
45643;DHT22;31358;46.008;11.144;2022-09-21T15:44:45;17.80;84.00
45643;DHT22;31358;46.008;11.144;2022-09-21T15:47:14;17.80;84.10
45643;DHT22;31358;46.008;11.144;2022-09-21T15:49:41;17.70;84.40
45643;DHT22;31358;46.008;11.144;2022-09-21T15:52:20;17.70;84.50
45643;DHT22;31358;46.008;11.144;2022-09-21T15:54:51;17.60;84.80
45643;DHT22;31358;46.008;11.144;2022-09-21T15:57:36;17.60;84.80
45643;DHT22;31358;46.008;11.144;2022-09-21T16:00:29;17.50;85.30
45643;DHT22;31358;46.008;11.144;2022-09-21T16:03:18;17.50;85.30
45643;DHT22;31358;46.008;11.144;2022-09-21T16:05:46;17.50;85.50
45643;DHT22;31358;46.008;11.144;2022-09-21T16:10:47;17.40;85.90
45643;DHT22;31358;46.008;11.144;2022-09-21T16:13:19;17.30;86.10
45643;DHT22;31358;46.008;11.144;2022-09-21T16:16:12;17.30;86.30
45643;DHT22;31358;46.008;11.144;2022-09-21T16:18:46;17.30;86.30
45643;DHT22;31358;46.008;11.144;2022-09-21T16:23:55;17.20;86.50
45643;DHT22;31358;46.008;11.144;2022-09-21T16:26:34;17.10;86.10
45643;DHT22;31358;46.008;11.144;2022-09-21T16:29:20;17.10;86.10
45643;DHT22;31358;46.008;11.144;2022-09-21T16:31:48;17.10;86.20
45643;DHT22;31358;46.008;11.144;2022-09-21T16:34:29;17.10;86.30
45643;DHT22;31358;46.008;11.144;2022-09-21T16:37:01;17.00;86.20
45643;DHT22;31358;46.008;11.144;2022-09-21T16:39:41;16.90;86.20
45643;DHT22;31358;46.008;11.144;2022-09-21T16:42:08;16.90;86.50
45643;DHT22;31358;46.008;11.144;2022-09-21T16:44:36;16.80;86.50
45643;DHT22;31358;46.008;11.144;2022-09-21T16:47:03;16.80;86.10
45643;DHT22;31358;46.008;11.144;2022-09-21T16:49:35;16.80;86.20
45643;DHT22;31358;46.008;11.144;2022-09-21T16:52:01;16.80;86.40
45643;DHT22;31358;46.008;11.144;2022-09-21T16:54:27;16.70;86.20
45643;DHT22;31358;46.008;11.144;2022-09-21T16:56:56;16.70;86.70
45643;DHT22;31358;46.008;11.144;2022-09-21T16:59:22;16.60;87.10
45643;DHT22;31358;46.008;11.144;2022-09-21T17:01:50;16.60;87.10
45643;DHT22;31358;46.008;11.144;2022-09-21T17:04:19;16.60;87.20
45643;DHT22;31358;46.008;11.144;2022-09-21T17:06:45;16.50;87.20
45643;DHT22;31358;46.008;11.144;2022-09-21T17:11:48;16.50;86.70
45643;DHT22;31358;46.008;11.144;2022-09-21T17:14:15;16.50;87.00
45643;DHT22;31358;46.008;11.144;2022-09-21T17:16:55;16.40;87.90
45643;DHT22;31358;46.008;11.144;2022-09-21T17:19:22;16.40;87.60
45643;DHT22;31358;46.008;11.144;2022-09-21T17:21:49;16.30;88.70
45643;DHT22;31358;46.008;11.144;2022-09-21T17:24:15;16.30;87.60
45643;DHT22;31358;46.008;11.144;2022-09-21T17:26:42;16.30;87.00
45643;DHT22;31358;46.008;11.144;2022-09-21T17:29:17;16.40;86.80
45643;DHT22;31358;46.008;11.144;2022-09-21T17:31:46;16.40;86.90
45643;DHT22;31358;46.008;11.144;2022-09-21T17:34:12;16.30;87.50
45643;DHT22;31358;46.008;11.144;2022-09-21T17:36:40;16.20;88.20
45643;DHT22;31358;46.008;11.144;2022-09-21T17:39:05;16.00;90.00
45643;DHT22;31358;46.008;11.144;2022-09-21T17:41:49;15.80;89.90
45643;DHT22;31358;46.008;11.144;2022-09-21T17:49:36;15.50;90.90
45643;DHT22;31358;46.008;11.144;2022-09-21T17:52:02;15.40;91.40
45643;DHT22;31358;46.008;11.144;2022-09-21T17:54:47;15.20;91.60
45643;DHT22;31358;46.008;11.144;2022-09-21T18:00:02;15.40;91.50
45643;DHT22;31358;46.008;11.144;2022-09-21T18:02:28;15.20;91.90
45643;DHT22;31358;46.008;11.144;2022-09-21T18:04:59;15.30;91.30
45643;DHT22;31358;46.008;11.144;2022-09-21T18:07:27;15.30;91.50
45643;DHT22;31358;46.008;11.144;2022-09-21T18:09:53;15.30;91.60
45643;DHT22;31358;46.008;11.144;2022-09-21T18:25:56;15.40;91.40
45643;DHT22;31358;46.008;11.144;2022-09-21T18:37:18;15.30;91.50
45643;DHT22;31358;46.008;11.144;2022-09-21T18:39:54;15.20;91.60
45643;DHT22;31358;46.008;11.144;2022-09-21T18:45:04;15.20;91.50
45643;DHT22;31358;46.008;11.144;2022-09-21T18:48:10;15.00;92.20
45643;DHT22;31358;46.008;11.144;2022-09-21T18:55:39;15.10;91.60
45643;DHT22;31358;46.008;11.144;2022-09-21T18:58:05;15.10;91.50
45643;DHT22;31358;46.008;11.144;2022-09-21T19:00:30;15.20;91.50
45643;DHT22;31358;46.008;11.144;2022-09-21T19:02:58;15.10;91.50
45643;DHT22;31358;46.008;11.144;2022-09-21T19:05:25;15.20;91.40
45643;DHT22;31358;46.008;11.144;2022-09-21T19:08:34;15.20;91.40
45643;DHT22;31358;46.008;11.144;2022-09-21T19:11:27;15.20;91.50
45643;DHT22;31358;46.008;11.144;2022-09-21T19:14:23;15.10;91.80
45643;DHT22;31358;46.008;11.144;2022-09-21T19:20:02;15.10;91.60
45643;DHT22;31358;46.008;11.144;2022-09-21T19:25:58;15.10;91.80
45643;DHT22;31358;46.008;11.144;2022-09-21T19:30:57;15.00;91.90
45643;DHT22;31358;46.008;11.144;2022-09-21T19:33:30;15.10;91.70
45643;DHT22;31358;46.008;11.144;2022-09-21T19:35:57;15.10;91.80
45643;DHT22;31358;46.008;11.144;2022-09-21T19:38:25;15.00;91.70
45643;DHT22;31358;46.008;11.144;2022-09-21T19:40:58;15.00;91.80
45643;DHT22;31358;46.008;11.144;2022-09-21T19:43:32;15.00;91.80
45643;DHT22;31358;46.008;11.144;2022-09-21T19:48:47;14.90;92.00
45643;DHT22;31358;46.008;11.144;2022-09-21T19:51:42;15.00;91.90